createdAt,value
2018-06-08T00:01:55.445Z,6.67
2018-06-08T00:04:24.291Z,4.90
2018-06-08T00:06:52.795Z,8.07
2018-06-08T00:09:21.352Z,4.17
2018-06-08T00:11:49.928Z,8.50
2018-06-08T00:14:18.427Z,4.30
2018-06-08T00:16:47.353Z,5.22
2018-06-08T00:19:15.892Z,5.13
2018-06-08T00:21:44.513Z,7.30
2018-06-08T00:24:13.192Z,4.03
2018-06-08T00:26:41.545Z,5.43
2018-06-08T00:29:10.092Z,8.17
2018-06-08T00:31:38.648Z,6.43
2018-06-08T00:34:07.801Z,4.73
2018-06-08T00:36:36.301Z,4.13
2018-06-08T00:39:07.139Z,5.72
2018-06-08T00:41:35.544Z,4.27
2018-06-08T00:44:04.233Z,6.50
2018-06-08T00:46:33.184Z,6.40
2018-06-08T00:49:01.864Z,5.17
2018-06-08T00:51:30.256Z,5.70
2018-06-08T00:53:58.684Z,3.77
2018-06-08T00:56:32.674Z,7.47
2018-06-08T00:59:01.247Z,5.50
2018-06-08T01:01:29.969Z,4.60
2018-06-08T01:03:58.727Z,5.87
2018-06-08T01:06:27.291Z,6.30
2018-06-08T01:08:55.977Z,4.93
2018-06-08T01:11:24.356Z,5.70
2018-06-08T01:13:52.835Z,5.57
2018-06-08T01:16:21.844Z,6.00
2018-06-08T01:18:50.416Z,4.43
2018-06-08T01:21:18.832Z,6.67
2018-06-08T01:23:47.235Z,4.43
2018-06-08T01:26:15.983Z,9.23
2018-06-08T01:28:44.652Z,4.17
2018-06-08T01:31:13.559Z,6.17
2018-06-08T01:33:42.239Z,6.13
2018-06-08T01:36:11.260Z,5.00
2018-06-08T01:38:40.109Z,4.90
2018-06-08T01:41:08.957Z,3.53
2018-06-08T01:43:38.087Z,7.47
2018-06-08T01:46:07.768Z,7.03
2018-06-08T01:48:36.449Z,4.63
2018-06-08T01:51:05.116Z,5.17
2018-06-08T01:53:33.466Z,7.47
2018-06-08T01:56:02.044Z,4.33
2018-06-08T01:58:30.530Z,5.17
2018-06-08T02:00:59.089Z,4.90
2018-06-08T02:03:27.645Z,5.93
2018-06-08T02:05:57.224Z,5.63
2018-06-08T02:08:25.609Z,7.10
2018-06-08T02:10:54.064Z,6.23
2018-06-08T02:13:22.980Z,4.13
2018-06-08T02:15:51.713Z,5.73
2018-06-08T02:18:20.148Z,4.87
2018-06-08T02:20:48.740Z,5.60
2018-06-08T02:23:17.760Z,5.97
2018-06-08T02:25:46.447Z,5.50
2018-06-08T02:28:15.213Z,5.43
2018-06-08T02:30:44.403Z,6.27
2018-06-08T02:33:12.889Z,6.90
2018-06-08T02:35:41.482Z,4.63
2018-06-08T02:38:10.461Z,6.13
2018-06-08T02:40:38.946Z,6.40
2018-06-08T02:43:07.525Z,5.53
2018-06-08T02:45:36.500Z,5.47
2018-06-08T02:48:04.885Z,5.63
2018-06-08T02:50:33.876Z,6.60
2018-06-08T02:53:02.592Z,5.97
2018-06-08T02:55:31.064Z,4.93
2018-06-08T02:57:59.749Z,7.63
2018-06-08T03:00:28.430Z,5.67
2018-06-08T03:02:57.050Z,8.10
2018-06-08T03:05:25.791Z,4.10
2018-06-08T03:07:54.178Z,6.20
2018-06-08T03:10:22.857Z,6.00
2018-06-08T03:12:51.744Z,6.00
2018-06-08T03:15:20.555Z,7.50
2018-06-08T03:17:49.252Z,7.67
2018-06-08T03:20:17.946Z,6.40
2018-06-08T03:22:46.922Z,6.90
2018-06-08T03:25:15.599Z,8.23
2018-06-08T03:27:44.330Z,16.73
2018-06-08T03:30:12.968Z,7.97
2018-06-08T03:32:41.573Z,6.73
2018-06-08T03:35:10.568Z,7.63
2018-06-08T03:37:39.560Z,6.67
2018-06-08T03:40:07.908Z,6.23
2018-06-08T03:42:36.422Z,7.33
2018-06-08T03:45:05.005Z,7.47
2018-06-08T03:47:33.789Z,7.07
2018-06-08T03:50:02.453Z,8.23
2018-06-08T03:52:31.340Z,6.33
2018-06-08T03:55:00.102Z,8.27
2018-06-08T03:57:28.748Z,6.23
2018-06-08T03:59:57.152Z,5.37
2018-06-08T04:02:26.090Z,8.97
2018-06-08T04:04:54.753Z,11.07
2018-06-08T04:07:23.677Z,9.73
2018-06-08T04:09:52.152Z,9.07
2018-06-08T04:12:20.665Z,6.70
2018-06-08T04:14:49.355Z,6.73
2018-06-08T04:17:17.932Z,6.33
2018-06-08T04:19:46.284Z,7.23
2018-06-08T04:22:14.797Z,6.07
2018-06-08T04:24:43.987Z,6.47
2018-06-08T04:27:12.994Z,6.20
2018-06-08T04:29:41.470Z,5.60
2018-06-08T04:32:10.336Z,8.33
2018-06-08T04:34:39.097Z,6.57
2018-06-08T04:37:07.730Z,7.63
2018-06-08T04:39:36.137Z,8.00
2018-06-08T04:42:05.099Z,5.77
2018-06-08T04:44:33.789Z,9.03
2018-06-08T04:47:02.153Z,7.07
2018-06-08T04:49:31.185Z,8.73
2018-06-08T04:51:59.846Z,6.70
2018-06-08T04:54:28.849Z,10.90
2018-06-08T04:56:57.229Z,7.97
2018-06-08T04:59:26.236Z,6.93
2018-06-08T05:01:55.003Z,7.17
2018-06-08T05:04:23.916Z,8.60
2018-06-08T05:06:52.385Z,7.13
2018-06-08T05:09:20.971Z,8.23
2018-06-08T05:11:49.662Z,8.80
2018-06-08T05:14:18.438Z,13.27
2018-06-08T05:16:47.615Z,16.20
2018-06-08T05:19:16.129Z,7.30
2018-06-08T05:21:44.816Z,8.67
2018-06-08T05:24:13.372Z,6.03
2018-06-08T05:26:41.870Z,10.13
2018-06-08T05:29:10.862Z,9.33
2018-06-08T05:31:39.485Z,7.10
2018-06-08T05:34:08.845Z,10.67
2018-06-08T05:36:37.845Z,10.67
2018-06-08T05:39:08.282Z,9.70
2018-06-08T05:41:37.257Z,11.87
2018-06-08T05:44:05.984Z,7.60
2018-06-08T05:46:34.728Z,10.33
2018-06-08T05:49:03.424Z,12.27
2018-06-08T05:51:32.289Z,9.10
2018-06-08T05:54:00.730Z,7.70
2018-06-08T05:56:29.482Z,9.93
2018-06-08T05:58:58.071Z,11.87
2018-06-08T06:01:26.774Z,8.90
2018-06-08T06:03:55.456Z,8.80
2018-06-08T06:06:23.853Z,7.73
2018-06-08T06:08:52.215Z,8.73
2018-06-08T06:11:20.897Z,8.73
2018-06-08T06:13:49.838Z,8.60
2018-06-08T06:16:18.604Z,10.00
2018-06-08T06:18:47.877Z,8.30
2018-06-08T06:21:17.097Z,8.90
2018-06-08T06:23:45.540Z,10.87
2018-06-08T06:26:14.521Z,7.57
2018-06-08T06:28:42.909Z,9.47
2018-06-08T06:31:11.485Z,7.07
2018-06-08T06:33:40.288Z,11.07
2018-06-08T06:36:08.652Z,7.47
2018-06-08T06:38:37.349Z,10.73
2018-06-08T06:41:06.068Z,9.53
2018-06-08T06:43:35.066Z,8.73
2018-06-08T06:46:04.053Z,9.53
2018-06-08T06:48:32.744Z,7.77
2018-06-08T06:51:01.677Z,7.40
2018-06-08T06:53:30.179Z,8.73
2018-06-08T06:55:58.770Z,7.13
2018-06-08T06:58:27.792Z,10.67
2018-06-08T07:00:56.937Z,9.57
2018-06-08T07:03:25.489Z,8.50
2018-06-08T07:05:54.107Z,7.90
2018-06-08T07:08:23.052Z,10.20
2018-06-08T07:10:51.658Z,10.47
2018-06-08T07:13:20.605Z,10.27
2018-06-08T07:15:49.490Z,9.13
2018-06-08T07:18:18.437Z,11.93
2018-06-08T07:20:46.968Z,7.37
2018-06-08T07:23:16.212Z,6.57
2018-06-08T07:25:45.177Z,7.77
2018-06-08T07:28:13.840Z,8.47
2018-06-08T07:30:42.637Z,12.13
2018-06-08T07:33:11.859Z,7.57
2018-06-08T07:35:40.864Z,7.63
2018-06-08T07:38:09.308Z,10.00
2018-06-08T07:40:37.928Z,9.47
2018-06-08T07:43:06.595Z,8.20
2018-06-08T07:45:34.964Z,9.30
2018-06-08T07:48:03.681Z,10.53
2018-06-08T07:50:32.366Z,9.87
2018-06-08T07:53:01.950Z,8.33
2018-06-08T07:55:30.431Z,9.27
2018-06-08T07:57:59.044Z,8.20
2018-06-08T08:00:27.725Z,7.40
2018-06-08T08:02:56.236Z,7.80
2018-06-08T08:05:24.778Z,8.17
2018-06-08T08:07:53.258Z,7.53
2018-06-08T08:10:22.138Z,8.43
2018-06-08T08:12:50.624Z,7.80
2018-06-08T08:15:19.533Z,7.37
2018-06-08T08:17:47.955Z,6.57
2018-06-08T08:20:16.620Z,7.97
2018-06-08T08:22:45.479Z,8.63
2018-06-08T08:25:14.080Z,8.60
2018-06-08T08:27:42.774Z,6.67
2018-06-08T08:30:11.736Z,9.87
2018-06-08T08:32:40.737Z,5.73
2018-06-08T08:35:09.429Z,8.77
2018-06-08T08:37:38.033Z,6.00
2018-06-08T08:40:07.090Z,9.37
2018-06-08T08:42:35.693Z,9.60
2018-06-08T08:45:04.340Z,9.63
2018-06-08T08:47:32.856Z,10.60
2018-06-08T08:50:01.477Z,10.70
2018-06-08T08:52:30.449Z,8.58
2018-06-08T08:54:58.836Z,6.80
2018-06-08T08:57:27.579Z,6.57
2018-06-08T08:59:56.476Z,7.30
2018-06-08T09:02:25.018Z,7.80
2018-06-08T09:04:53.611Z,5.07
2018-06-08T09:07:22.282Z,10.17
2018-06-08T09:09:51.045Z,5.27
2018-06-08T09:12:19.627Z,8.00
2018-06-08T09:14:48.134Z,7.47
2018-06-08T09:17:17.509Z,6.23
2018-06-08T09:19:46.025Z,5.60
2018-06-08T09:22:15.056Z,7.07
2018-06-08T09:24:43.981Z,7.50
2018-06-08T09:27:12.349Z,6.50
2018-06-08T09:29:40.744Z,7.13
2018-06-08T09:32:09.760Z,7.60
2018-06-08T09:34:38.729Z,8.30
2018-06-08T09:37:07.289Z,5.37
2018-06-08T09:39:35.812Z,7.23
2018-06-08T09:42:04.494Z,6.37
2018-06-08T09:44:32.989Z,5.27
2018-06-08T09:47:01.588Z,5.43
2018-06-08T09:49:30.568Z,4.47
2018-06-08T09:51:59.828Z,5.67
2018-06-08T09:54:28.309Z,7.67
2018-06-08T09:56:56.922Z,7.13
2018-06-08T09:59:25.286Z,4.20
2018-06-08T10:01:54.240Z,5.90
2018-06-08T10:04:23.604Z,5.37
2018-06-08T10:06:52.370Z,4.50
2018-06-08T10:09:21.204Z,4.57
2018-06-08T10:11:49.772Z,6.60
2018-06-08T10:14:18.330Z,5.50
2018-06-08T10:16:46.725Z,4.77
2018-06-08T10:19:15.088Z,4.20
2018-06-08T10:21:43.776Z,6.20
2018-06-08T10:24:12.780Z,4.97
2018-06-08T10:26:41.997Z,6.53
2018-06-08T10:29:10.641Z,4.63
2018-06-08T10:31:39.158Z,5.23
2018-06-08T10:34:08.291Z,4.33
2018-06-08T10:36:37.136Z,4.97
2018-06-08T10:39:07.354Z,4.73
2018-06-08T10:41:36.033Z,5.97
2018-06-08T10:44:05.668Z,5.13
2018-06-08T10:46:34.308Z,4.53
2018-06-08T10:49:02.791Z,4.60
2018-06-08T10:51:31.700Z,4.63
2018-06-08T10:54:00.283Z,5.73
2018-06-08T10:56:29.074Z,4.27
2018-06-08T10:58:58.024Z,5.07
2018-06-08T11:01:26.839Z,4.93
2018-06-08T11:03:55.531Z,5.57
2018-06-08T11:06:24.446Z,5.93
2018-06-08T11:08:52.920Z,7.43
2018-06-08T11:11:22.159Z,5.70
2018-06-08T11:13:50.810Z,6.87
2018-06-08T11:16:19.469Z,4.80
2018-06-08T11:18:48.493Z,5.20
2018-06-08T11:21:17.197Z,5.10
2018-06-08T11:23:45.976Z,6.13
2018-06-08T11:26:14.543Z,5.17
2018-06-08T11:28:43.129Z,4.40
2018-06-08T11:31:12.237Z,5.07
2018-06-08T11:33:40.996Z,5.77
2018-06-08T11:36:09.685Z,5.23
2018-06-08T11:38:39.106Z,5.63
2018-06-08T11:41:07.913Z,5.17
2018-06-08T11:43:36.558Z,5.13
2018-06-08T11:46:05.291Z,6.37
2018-06-08T11:48:33.971Z,8.73
2018-06-08T11:51:02.447Z,6.20
2018-06-08T11:53:31.337Z,5.33
2018-06-08T11:56:00.038Z,5.57
2018-06-08T11:58:28.944Z,4.93
2018-06-08T12:00:57.811Z,5.20
2018-06-08T12:03:26.415Z,6.63
2018-06-08T12:05:54.940Z,5.60
2018-06-08T12:08:23.476Z,5.23
2018-06-08T12:10:52.559Z,5.40
2018-06-08T12:13:21.142Z,4.83
2018-06-08T12:15:49.797Z,4.97
2018-06-08T12:18:18.376Z,5.73
2018-06-08T12:20:46.960Z,5.10
2018-06-08T12:23:15.872Z,4.90
2018-06-08T12:25:45.153Z,6.23
2018-06-08T12:28:13.597Z,5.30
2018-06-08T12:30:42.280Z,5.67
2018-06-08T12:33:11.270Z,6.07
2018-06-08T12:35:39.935Z,5.80
2018-06-08T12:38:08.448Z,5.27
2018-06-08T12:40:36.986Z,6.43
2018-06-08T12:43:05.348Z,5.73
2018-06-08T12:45:34.064Z,4.93
2018-06-08T12:48:02.741Z,5.27
2018-06-08T12:50:31.497Z,5.13
2018-06-08T12:53:00.220Z,5.70
2018-06-08T12:55:28.820Z,5.70
2018-06-08T12:57:57.768Z,5.53
2018-06-08T13:00:26.481Z,5.43
2018-06-08T13:02:54.871Z,5.23
2018-06-08T13:05:24.074Z,5.83
2018-06-08T13:07:52.832Z,5.53
2018-06-08T13:10:21.536Z,5.40
2018-06-08T13:12:50.240Z,5.40
2018-06-08T13:15:18.972Z,5.60
2018-06-08T13:17:47.685Z,6.43
2018-06-08T13:20:16.316Z,5.63
2018-06-08T13:22:44.986Z,6.17
2018-06-08T13:25:14.381Z,5.73
2018-06-08T13:27:43.313Z,5.00
2018-06-08T13:30:12.041Z,5.80
2018-06-08T13:32:40.965Z,6.63
2018-06-08T13:35:10.257Z,5.63
2018-06-08T13:37:38.916Z,5.93
2018-06-08T13:40:07.413Z,6.23
2018-06-08T13:42:36.280Z,5.60
2018-06-08T13:45:05.021Z,7.00
2018-06-08T13:47:33.692Z,6.70
2018-06-08T13:50:02.984Z,7.87
2018-06-08T13:52:31.694Z,6.87
2018-06-08T13:55:00.677Z,6.17
2018-06-08T13:57:29.352Z,7.63
2018-06-08T13:59:57.722Z,7.60
2018-06-08T14:02:26.685Z,8.57
2018-06-08T14:04:55.407Z,9.07
2018-06-08T14:07:24.118Z,14.17
2018-06-08T14:09:52.470Z,12.87
2018-06-08T14:12:20.896Z,21.63
2018-06-08T14:14:49.549Z,19.83
2018-06-08T14:17:18.401Z,18.03
2018-06-08T14:19:47.004Z,16.83
2018-06-08T14:22:15.747Z,14.63
2018-06-08T14:24:44.283Z,16.03
2018-06-08T14:27:12.700Z,14.07
2018-06-08T14:29:41.485Z,15.43
2018-06-08T14:32:10.149Z,12.60
2018-06-08T14:34:39.057Z,12.53
2018-06-08T14:37:07.984Z,12.60
2018-06-08T14:39:36.729Z,11.30
2018-06-08T14:42:05.793Z,11.67
2018-06-08T14:44:34.792Z,10.80
2018-06-08T14:47:03.519Z,10.30
2018-06-08T14:49:32.222Z,9.43
2018-06-08T14:52:00.788Z,10.17
2018-06-08T14:54:29.549Z,9.10
2018-06-08T14:56:58.424Z,8.60
2018-06-08T14:59:26.902Z,8.03
2018-06-08T15:01:55.488Z,8.73
2018-06-08T15:04:23.908Z,7.90
2018-06-08T15:06:52.282Z,8.83
2018-06-08T15:09:20.627Z,9.57
2018-06-08T15:11:49.617Z,7.70
2018-06-08T15:14:18.009Z,7.33
2018-06-08T15:16:46.476Z,6.83
2018-06-08T15:19:15.525Z,8.47
2018-06-08T15:21:44.400Z,7.50
2018-06-08T15:24:12.936Z,7.03
2018-06-08T15:26:41.766Z,7.50
2018-06-08T15:29:10.128Z,7.53
2018-06-08T15:31:38.625Z,6.97
2018-06-08T15:34:07.382Z,7.70
2018-06-08T15:36:35.872Z,7.07
2018-06-08T15:39:06.092Z,6.70
2018-06-08T15:41:34.997Z,7.63
2018-06-08T15:44:03.479Z,7.50
2018-06-08T15:46:32.288Z,7.00
2018-06-08T15:49:01.267Z,8.53
2018-06-08T15:51:29.961Z,7.20
2018-06-08T15:53:58.872Z,7.57
2018-06-08T15:56:27.309Z,7.13
2018-06-08T15:58:55.921Z,7.00
2018-06-08T16:01:25.191Z,7.57
2018-06-08T16:03:53.596Z,8.30
2018-06-08T16:06:22.282Z,9.00
2018-06-08T16:08:50.662Z,7.00
2018-06-08T16:11:19.372Z,7.07
2018-06-08T16:13:48.646Z,6.93
2018-06-08T16:16:17.352Z,6.90
2018-06-08T16:18:45.824Z,8.73
2018-06-08T16:21:14.760Z,7.03
2018-06-08T16:23:43.473Z,7.27
2018-06-08T16:26:12.176Z,7.57
2018-06-08T16:28:40.939Z,8.17
2018-06-08T16:31:09.441Z,7.03
2018-06-08T16:33:37.857Z,7.70
2018-06-08T16:36:07.243Z,7.40
2018-06-08T16:38:35.809Z,7.73
2018-06-08T16:41:04.309Z,7.17
2018-06-08T16:43:33.188Z,7.20
2018-06-08T16:46:01.758Z,6.93
2018-06-08T16:48:30.432Z,7.13
2018-06-08T16:50:59.031Z,7.70
2018-06-08T16:53:27.718Z,6.90
2018-06-08T16:55:56.631Z,7.53
2018-06-08T16:58:24.992Z,7.30
2018-06-08T17:00:53.704Z,8.10
2018-06-08T17:03:22.125Z,8.40
2018-06-08T17:05:50.456Z,7.37
2018-06-08T17:08:19.156Z,8.73
2018-06-08T17:10:47.552Z,7.40
2018-06-08T17:13:16.496Z,7.70
2018-06-08T17:15:44.876Z,9.33
2018-06-08T17:18:13.613Z,7.23
2018-06-08T17:20:42.605Z,7.63
2018-06-08T17:23:11.580Z,8.57
2018-06-08T17:25:40.593Z,7.83
2018-06-08T17:28:10.468Z,7.53
2018-06-08T17:30:38.865Z,7.40
2018-06-08T17:33:07.252Z,7.17
2018-06-08T17:35:35.932Z,7.63
2018-06-08T17:38:04.385Z,7.13
2018-06-08T17:40:32.975Z,7.27
2018-06-08T17:43:01.992Z,8.40
2018-06-08T17:45:30.673Z,7.43
2018-06-08T17:47:59.641Z,7.50
2018-06-08T17:50:28.081Z,7.33
2018-06-08T17:52:57.046Z,6.77
2018-06-08T17:55:25.723Z,7.40
2018-06-08T17:57:54.417Z,6.63
2018-06-08T18:00:23.581Z,6.77
2018-06-08T18:02:52.410Z,6.93
2018-06-08T18:05:20.928Z,7.40
2018-06-08T18:07:49.577Z,7.40
2018-06-08T18:10:18.478Z,7.30
2018-06-08T18:12:46.919Z,6.57
2018-06-08T18:15:15.629Z,6.20
2018-06-08T18:17:44.974Z,6.63
2018-06-08T18:20:13.828Z,6.23
2018-06-08T18:22:42.177Z,6.90
2018-06-08T18:25:10.985Z,7.60
2018-06-08T18:27:39.658Z,7.57
2018-06-08T18:30:08.568Z,6.37
2018-06-08T18:32:37.975Z,6.10
2018-06-08T18:35:06.574Z,6.47
2018-06-08T18:37:34.944Z,7.27
2018-06-08T18:40:03.473Z,6.33
2018-06-08T18:42:32.069Z,6.97
2018-06-08T18:45:00.773Z,6.33
2018-06-08T18:47:29.378Z,6.00
2018-06-08T18:49:58.424Z,6.60
2018-06-08T18:52:27.058Z,5.67
2018-06-08T18:54:56.054Z,6.53
2018-06-08T18:57:24.509Z,6.33
2018-06-08T18:59:53.437Z,6.80
2018-06-08T19:02:22.092Z,6.93
2018-06-08T19:04:50.576Z,5.80
2018-06-08T19:07:19.199Z,7.77
2018-06-08T19:09:48.169Z,7.70
2018-06-08T19:12:16.832Z,7.43
2018-06-08T19:14:45.328Z,6.87
2018-06-08T19:17:14.189Z,6.60
2018-06-08T19:19:42.803Z,6.47
2018-06-08T19:22:11.604Z,6.30
2018-06-08T19:24:40.141Z,5.97
2018-06-08T19:27:09.289Z,8.40
2018-06-08T19:29:37.992Z,6.03
2018-06-08T19:32:06.507Z,6.70
2018-06-08T19:34:35.331Z,7.50
2018-06-08T19:37:04.624Z,6.97
2018-06-08T19:39:33.773Z,5.90
2018-06-08T19:42:03.105Z,6.23
2018-06-08T19:44:32.184Z,6.80
2018-06-08T19:47:00.686Z,6.77
2018-06-08T19:49:29.681Z,6.97
2018-06-08T19:51:58.315Z,7.33
2018-06-08T19:54:27.008Z,7.23
2018-06-08T19:56:55.393Z,6.40
2018-06-08T19:59:24.138Z,6.97
2018-06-08T20:01:52.845Z,8.17
2018-06-08T20:04:21.463Z,6.60
2018-06-08T20:06:50.456Z,6.30
2018-06-08T20:09:19.392Z,8.10
2018-06-08T20:11:47.812Z,7.23
2018-06-08T20:14:16.277Z,6.43
2018-06-08T20:16:44.907Z,6.40
2018-06-08T20:19:13.535Z,7.13
2018-06-08T20:21:42.218Z,7.07
2018-06-08T20:24:10.653Z,7.83
2018-06-08T20:26:39.424Z,6.43
2018-06-08T20:29:08.092Z,6.50
2018-06-08T20:31:36.879Z,6.57
2018-06-08T20:34:06.101Z,9.27
2018-06-08T20:36:34.760Z,6.63
2018-06-08T20:39:04.272Z,6.63
2018-06-08T20:41:33.264Z,6.70
2018-06-08T20:44:01.637Z,6.97
2018-06-08T20:46:30.916Z,7.30
2018-06-08T20:48:59.527Z,7.43
2018-06-08T20:51:28.120Z,7.03
2018-06-08T20:53:56.700Z,8.17
2018-06-08T20:56:25.555Z,6.60
2018-06-08T20:58:54.377Z,7.80
2018-06-08T21:01:23.089Z,7.07
2018-06-08T21:03:51.820Z,7.10
2018-06-08T21:06:20.426Z,8.03
2018-06-08T21:08:49.166Z,10.57
2018-06-08T21:11:17.975Z,7.20
2018-06-08T21:13:46.497Z,8.17
2018-06-08T21:16:14.960Z,7.30
2018-06-08T21:18:43.663Z,8.37
2018-06-08T21:21:12.662Z,6.70
2018-06-08T21:23:41.347Z,8.70
2018-06-08T21:26:10.192Z,7.83
2018-06-08T21:28:38.720Z,6.87
2018-06-08T21:31:07.818Z,7.33
2018-06-08T21:33:36.309Z,8.23
2018-06-08T21:36:05.013Z,7.10
2018-06-08T21:38:34.098Z,7.87
2018-06-08T21:41:03.545Z,8.53
2018-06-08T21:43:32.580Z,8.50
2018-06-08T21:46:01.374Z,9.20
2018-06-08T21:48:29.937Z,9.40
2018-06-08T21:50:58.352Z,10.20
2018-06-08T21:53:26.824Z,10.37
2018-06-08T21:55:55.480Z,9.20
2018-06-08T21:58:24.681Z,9.53
2018-06-08T22:00:53.104Z,8.10
2018-06-08T22:03:21.472Z,9.10
2018-06-08T22:05:50.903Z,9.77
2018-06-08T22:08:19.781Z,12.23
2018-06-08T22:10:48.500Z,13.97
2018-06-08T22:13:17.436Z,15.03
2018-06-08T22:15:45.891Z,15.13
2018-06-08T22:18:15.532Z,17.40
2018-06-08T22:20:44.212Z,15.27
2018-06-08T22:23:12.921Z,14.03
2018-06-08T22:25:41.676Z,13.30
2018-06-08T22:28:10.201Z,15.07
2018-06-08T22:30:39.481Z,15.10
2018-06-08T22:33:08.468Z,12.57
2018-06-08T22:35:37.467Z,12.30
2018-06-08T22:38:06.128Z,11.97
2018-06-08T22:40:35.015Z,13.67
2018-06-08T22:43:03.542Z,12.07
2018-06-08T22:45:32.205Z,11.87
2018-06-08T22:48:01.001Z,13.07
2018-06-08T22:50:29.886Z,12.07
2018-06-08T22:52:58.249Z,12.37
2018-06-08T22:55:27.236Z,12.23
2018-06-08T22:57:55.649Z,12.00
2018-06-08T23:00:24.649Z,13.00
2018-06-08T23:02:53.008Z,13.20
2018-06-08T23:05:22.093Z,13.50
2018-06-08T23:07:51.290Z,13.93
2018-06-08T23:10:19.697Z,11.30
2018-06-08T23:12:48.725Z,12.80
2018-06-08T23:15:17.985Z,12.30
2018-06-08T23:17:46.348Z,11.03
2018-06-08T23:20:14.728Z,11.27
2018-06-08T23:22:43.105Z,12.27
2018-06-08T23:25:11.536Z,11.40
2018-06-08T23:27:39.888Z,11.97
2018-06-08T23:30:08.237Z,11.90
2018-06-08T23:32:36.979Z,10.93
2018-06-08T23:35:05.540Z,13.27
2018-06-08T23:37:34.221Z,10.43
2018-06-08T23:40:02.700Z,10.60
2018-06-08T23:42:31.631Z,13.50
2018-06-08T23:44:59.968Z,10.57
2018-06-08T23:47:28.656Z,12.30
2018-06-08T23:49:57.517Z,10.80
2018-06-08T23:52:26.054Z,11.20
2018-06-08T23:54:54.340Z,11.10
2018-06-08T23:57:23.097Z,10.50
2018-06-08T23:59:51.476Z,10.50
